Sperry, Missouri
Current Conditions -  °F | °C
As of 10:55 AM on Sunday 21 Dec 2014 (Local Time) from KIRK Reporting Station
Overcast Overcast  
Wind Chill: 35°   Ceiling: 2300
Heat Index: 41°   Visibility: 9mi
Dew Point: 38°   Wind: 10mph
Humidity: 89%   Direction: 160°SSE
Pressure: 30.04"   Gusts: NA
Location:  40.149°N, 92.6667°W
Report Text: KIRK 211655Z AUTO 16009KT 9SM OVC023 05/03 A3004 RMK AO2 SLP180 T00500033
Loading
Personal Weather Stations






























Interactive Weather Map New forecast layout! Learn more

10-Day Weather Forecast

Advertisements
Track Severe Weather on mobile